Terminal Aerodrome Forecast
Issued by NWS

Home | Current Version | Previous Version | Graphics & Text | Print | Product List | Glossary On
Versions: 1 2 3 4 5 6 7 8 9 10 11 12 13 14 15 16 17 18 19
000
FTUS43 KGRB 011407 AAB
TAFCWA
TAF AMD
KCWA 011407Z 0114/0212 19004KT 4SM BR BKN004
      TEMPO 0114/0116 6SM BR SCT004 BKN012
     FM011600 22008KT P6SM BKN015
     FM011800 21010G15KT P6SM SCT200
     FM020400 VRB03KT 4SM BR SCT200
      TEMPO 0208/0212 1SM BR BKN005=

USA.gov is the U.S. government's official web portal to all federal, state and local government web resources and services.